Aérodrome :
LOGIN :

S'inscrire | Disclaimer

   EN    FR    IT 

 










Légende :    VFR   VFR Marginal   IFR   IFR Intensif   IFR Très Intensif
Visi : 
Plafond : 
>= 8 km
>= 3000ft
5 à 8 km
1000 à 3000 ft
1500m à 5 km
500 à 1000 ft
800 à 1500m
200 à 500 ft
< 800m
< 200 ft
Symboles :   Orages  Brouillard  Fortes neiges  Fortes précipitations  Vent > 20 kt
SIGMETs :   Divers  Orages  Givrage  Turbulence  Onde Orograph.  Cendres Volcan.






- Altitude de l'aérodrome : 19 ft
- Code IATA : BEB


EGPL - Benbecula

DERNIER METAR :
  • 151620Z AUTO 07004KT 040V110 9999 SCT007/// 17/15 Q1017

METARs EXPIRÉS :
  • 151550Z AUTO 09007KT 9999 FEW011/// 18/15 Q1017
  • 151520Z AUTO 08004KT 050V120 9999 NCD 19/15 Q1017
  • 151450Z AUTO VRB03KT 9999 NCD 19/15 Q1018
  • 151420Z AUTO 06004KT 030V120 9999 NCD 19/15 Q1018
  • 151350Z AUTO 06004KT 010V100 9999 SCT011/// 19/15 Q1018

TAF TAF EGPL
Valide du 15 à 15h jusqu'au 16 à 00h UTC


151358Z 1515/1524 05005KT 9999 SCT010
TEMPO 1515/1524 BKN008
PROB30
TEMPO 1518/1524 6000 BKN004
ATIS : +44 1870 604 818



MET'MAP, la Météo Aéronautique d'un coup d'oeil ! - Copyright ORBIFLY Décembre 2007 - Disclaimer

ORBIFLY MET'MAP TEAM :

Programmation & Développement : Alexandra Zaïnal
Sur une idée originale de : Baudouin d'Aumeries
Assistance à la programmation : Marc-Olivier Méhu
Soutien technique & logistique : Manuel Goepfert

Contact : metmap@orbifly.com




SOURCES & CREDITS :

   NOAA